sensor_id;sensor_type;location;lat;lon;timestamp;P1;durP1;ratioP1;P2;durP2;ratioP2
18501;SDS011;68437;52.236;5.710;2023-09-19T00:00:30;18.42;;;4.20;;
18501;SDS011;68437;52.236;5.710;2023-09-19T00:02:59;20.27;;;4.45;;
18501;SDS011;68437;52.236;5.710;2023-09-19T00:05:27;15.23;;;4.13;;
18501;SDS011;68437;52.236;5.710;2023-09-19T00:07:55;19.42;;;4.60;;
18501;SDS011;68437;52.236;5.710;2023-09-19T00:10:23;19.27;;;4.75;;
18501;SDS011;68437;52.236;5.710;2023-09-19T00:12:52;18.13;;;4.55;;
18501;SDS011;68437;52.236;5.710;2023-09-19T00:15:20;20.13;;;4.55;;
18501;SDS011;68437;52.236;5.710;2023-09-19T00:17:47;21.20;;;4.47;;
18501;SDS011;68437;52.236;5.710;2023-09-19T00:20:17;19.08;;;4.90;;
18501;SDS011;68437;52.236;5.710;2023-09-19T00:22:48;15.65;;;4.50;;
18501;SDS011;68437;52.236;5.710;2023-09-19T00:25:15;14.38;;;4.30;;
18501;SDS011;68437;52.236;5.710;2023-09-19T00:27:42;16.98;;;4.40;;
18501;SDS011;68437;52.236;5.710;2023-09-19T00:30:11;11.60;;;3.90;;
18501;SDS011;68437;52.236;5.710;2023-09-19T00:32:41;17.88;;;4.30;;
18501;SDS011;68437;52.236;5.710;2023-09-19T00:35:09;11.43;;;3.80;;
18501;SDS011;68437;52.236;5.710;2023-09-19T00:37:36;17.85;;;4.28;;
18501;SDS011;68437;52.236;5.710;2023-09-19T00:40:06;17.35;;;4.25;;
18501;SDS011;68437;52.236;5.710;2023-09-19T00:42:37;17.55;;;4.13;;
18501;SDS011;68437;52.236;5.710;2023-09-19T00:45:05;9.98;;;4.00;;
18501;SDS011;68437;52.236;5.710;2023-09-19T00:47:34;13.45;;;3.28;;
18501;SDS011;68437;52.236;5.710;2023-09-19T00:50:02;17.23;;;3.55;;
18501;SDS011;68437;52.236;5.710;2023-09-19T00:52:32;16.45;;;3.70;;
18501;SDS011;68437;52.236;5.710;2023-09-19T00:55:01;13.57;;;3.88;;
18501;SDS011;68437;52.236;5.710;2023-09-19T00:57:30;13.88;;;4.00;;
18501;SDS011;68437;52.236;5.710;2023-09-19T00:59:58;13.18;;;3.67;;
18501;SDS011;68437;52.236;5.710;2023-09-19T01:02:30;14.98;;;4.18;;
18501;SDS011;68437;52.236;5.710;2023-09-19T01:04:57;11.70;;;3.70;;
18501;SDS011;68437;52.236;5.710;2023-09-19T01:07:24;12.85;;;3.55;;
18501;SDS011;68437;52.236;5.710;2023-09-19T01:09:52;14.02;;;3.63;;
18501;SDS011;68437;52.236;5.710;2023-09-19T01:12:22;13.45;;;3.80;;
18501;SDS011;68437;52.236;5.710;2023-09-19T01:15:01;15.65;;;3.80;;
18501;SDS011;68437;52.236;5.710;2023-09-19T01:17:34;9.98;;;3.83;;
18501;SDS011;68437;52.236;5.710;2023-09-19T01:20:11;13.35;;;4.20;;
18501;SDS011;68437;52.236;5.710;2023-09-19T01:22:51;13.65;;;3.90;;
18501;SDS011;68437;52.236;5.710;2023-09-19T01:25:34;15.20;;;3.63;;
18501;SDS011;68437;52.236;5.710;2023-09-19T01:28:34;13.63;;;3.78;;
18501;SDS011;68437;52.236;5.710;2023-09-19T01:31:20;16.45;;;3.78;;
18501;SDS011;68437;52.236;5.710;2023-09-19T01:33:59;13.00;;;3.50;;
18501;SDS011;68437;52.236;5.710;2023-09-19T01:36:30;14.38;;;3.75;;
18501;SDS011;68437;52.236;5.710;2023-09-19T01:39:00;8.73;;;3.58;;
18501;SDS011;68437;52.236;5.710;2023-09-19T01:41:33;13.52;;;3.67;;
18501;SDS011;68437;52.236;5.710;2023-09-19T01:44:15;15.88;;;4.18;;
18501;SDS011;68437;52.236;5.710;2023-09-19T01:46:49;13.32;;;4.00;;
18501;SDS011;68437;52.236;5.710;2023-09-19T01:49:18;14.07;;;4.45;;
18501;SDS011;68437;52.236;5.710;2023-09-19T01:51:56;18.08;;;4.80;;
18501;SDS011;68437;52.236;5.710;2023-09-19T01:54:30;12.25;;;4.75;;
18501;SDS011;68437;52.236;5.710;2023-09-19T01:57:05;13.93;;;4.80;;
18501;SDS011;68437;52.236;5.710;2023-09-19T01:59:37;16.48;;;5.35;;
18501;SDS011;68437;52.236;5.710;2023-09-19T02:02:12;10.57;;;4.82;;
18501;SDS011;68437;52.236;5.710;2023-09-19T02:04:41;19.08;;;5.53;;
18501;SDS011;68437;52.236;5.710;2023-09-19T02:07:07;15.57;;;5.20;;
18501;SDS011;68437;52.236;5.710;2023-09-19T02:09:34;19.00;;;5.38;;
18501;SDS011;68437;52.236;5.710;2023-09-19T02:12:04;16.98;;;5.55;;
18501;SDS011;68437;52.236;5.710;2023-09-19T02:14:32;11.77;;;5.35;;
18501;SDS011;68437;52.236;5.710;2023-09-19T02:16:59;16.85;;;5.88;;
18501;SDS011;68437;52.236;5.710;2023-09-19T02:19:27;16.00;;;5.55;;
18501;SDS011;68437;52.236;5.710;2023-09-19T02:21:54;21.65;;;5.80;;
18501;SDS011;68437;52.236;5.710;2023-09-19T02:24:21;16.33;;;5.38;;
18501;SDS011;68437;52.236;5.710;2023-09-19T02:26:52;15.55;;;5.43;;
18501;SDS011;68437;52.236;5.710;2023-09-19T02:29:19;12.57;;;5.13;;
18501;SDS011;68437;52.236;5.710;2023-09-19T02:31:47;19.00;;;5.75;;
18501;SDS011;68437;52.236;5.710;2023-09-19T02:34:14;20.65;;;6.00;;
18501;SDS011;68437;52.236;5.710;2023-09-19T02:36:42;19.67;;;5.72;;
18501;SDS011;68437;52.236;5.710;2023-09-19T02:39:09;17.23;;;5.00;;
18501;SDS011;68437;52.236;5.710;2023-09-19T02:41:37;14.98;;;4.88;;
18501;SDS011;68437;52.236;5.710;2023-09-19T02:44:06;17.35;;;4.80;;
18501;SDS011;68437;52.236;5.710;2023-09-19T02:46:33;15.90;;;4.97;;
18501;SDS011;68437;52.236;5.710;2023-09-19T02:49:01;17.85;;;4.60;;
18501;SDS011;68437;52.236;5.710;2023-09-19T02:51:28;15.90;;;4.35;;
18501;SDS011;68437;52.236;5.710;2023-09-19T02:53:56;19.20;;;4.30;;
18501;SDS011;68437;52.236;5.710;2023-09-19T02:56:23;16.17;;;4.22;;
18501;SDS011;68437;52.236;5.710;2023-09-19T02:58:50;17.98;;;4.18;;
18501;SDS011;68437;52.236;5.710;2023-09-19T03:01:17;16.27;;;3.65;;
18501;SDS011;68437;52.236;5.710;2023-09-19T03:03:44;22.75;;;3.90;;
18501;SDS011;68437;52.236;5.710;2023-09-19T03:06:11;19.60;;;3.53;;
18501;SDS011;68437;52.236;5.710;2023-09-19T03:08:39;16.83;;;3.83;;
18501;SDS011;68437;52.236;5.710;2023-09-19T03:11:08;19.25;;;3.50;;
18501;SDS011;68437;52.236;5.710;2023-09-19T03:13:36;16.77;;;3.33;;
18501;SDS011;68437;52.236;5.710;2023-09-19T03:16:04;18.95;;;3.88;;
18501;SDS011;68437;52.236;5.710;2023-09-19T03:18:31;24.08;;;3.70;;
18501;SDS011;68437;52.236;5.710;2023-09-19T03:21:00;19.25;;;3.53;;
18501;SDS011;68437;52.236;5.710;2023-09-19T03:23:27;17.77;;;4.00;;
18501;SDS011;68437;52.236;5.710;2023-09-19T03:25:54;21.60;;;3.50;;
18501;SDS011;68437;52.236;5.710;2023-09-19T03:28:22;20.77;;;3.38;;
18501;SDS011;68437;52.236;5.710;2023-09-19T03:30:57;18.52;;;3.65;;
18501;SDS011;68437;52.236;5.710;2023-09-19T03:33:26;15.27;;;3.50;;
18501;SDS011;68437;52.236;5.710;2023-09-19T03:35:52;26.50;;;3.10;;
18501;SDS011;68437;52.236;5.710;2023-09-19T03:38:20;15.23;;;3.22;;
18501;SDS011;68437;52.236;5.710;2023-09-19T03:40:47;13.82;;;2.63;;
18501;SDS011;68437;52.236;5.710;2023-09-19T03:43:13;17.23;;;3.38;;
18501;SDS011;68437;52.236;5.710;2023-09-19T03:45:42;21.10;;;3.58;;
18501;SDS011;68437;52.236;5.710;2023-09-19T03:48:10;15.77;;;3.22;;
18501;SDS011;68437;52.236;5.710;2023-09-19T03:50:37;14.52;;;3.10;;
18501;SDS011;68437;52.236;5.710;2023-09-19T03:53:03;15.45;;;2.97;;
18501;SDS011;68437;52.236;5.710;2023-09-19T03:55:32;17.02;;;3.30;;
18501;SDS011;68437;52.236;5.710;2023-09-19T03:58:00;17.08;;;3.28;;
18501;SDS011;68437;52.236;5.710;2023-09-19T04:00:27;16.65;;;3.40;;
18501;SDS011;68437;52.236;5.710;2023-09-19T04:02:56;16.63;;;3.45;;
18501;SDS011;68437;52.236;5.710;2023-09-19T04:05:23;17.40;;;3.60;;
18501;SDS011;68437;52.236;5.710;2023-09-19T04:07:48;18.83;;;3.20;;
18501;SDS011;68437;52.236;5.710;2023-09-19T04:10:16;20.52;;;3.30;;
18501;SDS011;68437;52.236;5.710;2023-09-19T04:12:50;15.80;;;3.30;;
18501;SDS011;68437;52.236;5.710;2023-09-19T04:15:18;17.05;;;3.42;;
18501;SDS011;68437;52.236;5.710;2023-09-19T04:17:45;15.70;;;3.60;;
18501;SDS011;68437;52.236;5.710;2023-09-19T04:20:13;21.17;;;3.25;;
18501;SDS011;68437;52.236;5.710;2023-09-19T04:22:41;14.88;;;3.83;;
18501;SDS011;68437;52.236;5.710;2023-09-19T04:25:07;19.85;;;3.30;;
18501;SDS011;68437;52.236;5.710;2023-09-19T04:27:35;18.45;;;3.20;;
18501;SDS011;68437;52.236;5.710;2023-09-19T04:30:02;17.88;;;3.10;;
18501;SDS011;68437;52.236;5.710;2023-09-19T04:32:36;13.95;;;3.03;;
18501;SDS011;68437;52.236;5.710;2023-09-19T04:35:04;19.98;;;3.83;;
18501;SDS011;68437;52.236;5.710;2023-09-19T04:37:36;15.35;;;3.58;;
18501;SDS011;68437;52.236;5.710;2023-09-19T04:40:05;16.80;;;3.05;;
18501;SDS011;68437;52.236;5.710;2023-09-19T04:42:37;14.05;;;3.15;;
18501;SDS011;68437;52.236;5.710;2023-09-19T04:45:05;17.15;;;3.20;;
18501;SDS011;68437;52.236;5.710;2023-09-19T04:47:34;18.60;;;3.28;;
18501;SDS011;68437;52.236;5.710;2023-09-19T04:50:03;14.30;;;2.95;;
18501;SDS011;68437;52.236;5.710;2023-09-19T04:52:33;18.08;;;3.15;;
18501;SDS011;68437;52.236;5.710;2023-09-19T04:55:01;17.35;;;3.25;;
18501;SDS011;68437;52.236;5.710;2023-09-19T04:57:29;19.30;;;3.20;;
18501;SDS011;68437;52.236;5.710;2023-09-19T04:59:56;16.63;;;3.50;;
18501;SDS011;68437;52.236;5.710;2023-09-19T05:02:23;16.70;;;3.10;;
18501;SDS011;68437;52.236;5.710;2023-09-19T05:04:50;15.63;;;3.30;;
18501;SDS011;68437;52.236;5.710;2023-09-19T05:07:18;15.38;;;3.30;;
18501;SDS011;68437;52.236;5.710;2023-09-19T05:09:46;16.23;;;3.20;;
18501;SDS011;68437;52.236;5.710;2023-09-19T05:12:15;12.98;;;3.00;;
18501;SDS011;68437;52.236;5.710;2023-09-19T05:14:43;14.80;;;3.08;;
18501;SDS011;68437;52.236;5.710;2023-09-19T05:17:10;17.60;;;3.53;;
18501;SDS011;68437;52.236;5.710;2023-09-19T05:19:37;13.52;;;3.15;;
18501;SDS011;68437;52.236;5.710;2023-09-19T05:22:04;20.90;;;3.42;;
18501;SDS011;68437;52.236;5.710;2023-09-19T05:24:32;18.67;;;3.30;;
18501;SDS011;68437;52.236;5.710;2023-09-19T05:26:59;15.60;;;3.53;;
18501;SDS011;68437;52.236;5.710;2023-09-19T05:29:27;21.38;;;3.40;;
18501;SDS011;68437;52.236;5.710;2023-09-19T05:31:54;13.57;;;3.10;;
18501;SDS011;68437;52.236;5.710;2023-09-19T05:34:20;16.75;;;3.30;;
18501;SDS011;68437;52.236;5.710;2023-09-19T05:36:47;14.75;;;2.90;;
18501;SDS011;68437;52.236;5.710;2023-09-19T05:39:15;15.35;;;3.30;;
18501;SDS011;68437;52.236;5.710;2023-09-19T05:41:41;20.52;;;3.30;;
18501;SDS011;68437;52.236;5.710;2023-09-19T05:44:08;14.35;;;3.15;;
18501;SDS011;68437;52.236;5.710;2023-09-19T05:46:37;14.77;;;3.17;;
18501;SDS011;68437;52.236;5.710;2023-09-19T05:49:03;22.92;;;3.47;;
18501;SDS011;68437;52.236;5.710;2023-09-19T05:51:30;15.30;;;2.75;;
18501;SDS011;68437;52.236;5.710;2023-09-19T05:53:57;13.63;;;3.13;;
18501;SDS011;68437;52.236;5.710;2023-09-19T05:56:24;20.13;;;3.35;;
18501;SDS011;68437;52.236;5.710;2023-09-19T05:58:52;20.63;;;3.30;;
18501;SDS011;68437;52.236;5.710;2023-09-19T06:01:19;12.73;;;3.05;;
18501;SDS011;68437;52.236;5.710;2023-09-19T06:03:47;15.25;;;2.85;;
18501;SDS011;68437;52.236;5.710;2023-09-19T06:06:14;20.83;;;3.17;;
18501;SDS011;68437;52.236;5.710;2023-09-19T06:08:41;12.43;;;2.90;;
18501;SDS011;68437;52.236;5.710;2023-09-19T06:11:09;19.02;;;3.45;;
18501;SDS011;68437;52.236;5.710;2023-09-19T06:13:36;14.07;;;3.30;;
18501;SDS011;68437;52.236;5.710;2023-09-19T06:16:04;17.40;;;3.10;;
18501;SDS011;68437;52.236;5.710;2023-09-19T06:18:31;12.07;;;3.10;;
18501;SDS011;68437;52.236;5.710;2023-09-19T06:21:00;16.60;;;3.00;;
18501;SDS011;68437;52.236;5.710;2023-09-19T06:23:31;15.57;;;3.30;;
18501;SDS011;68437;52.236;5.710;2023-09-19T06:25:59;18.70;;;3.10;;
18501;SDS011;68437;52.236;5.710;2023-09-19T06:28:26;16.60;;;3.22;;
18501;SDS011;68437;52.236;5.710;2023-09-19T06:30:53;18.80;;;3.33;;
18501;SDS011;68437;52.236;5.710;2023-09-19T06:33:20;13.60;;;2.78;;
18501;SDS011;68437;52.236;5.710;2023-09-19T06:35:47;14.45;;;2.83;;
18501;SDS011;68437;52.236;5.710;2023-09-19T06:38:15;14.25;;;3.10;;
18501;SDS011;68437;52.236;5.710;2023-09-19T06:40:44;18.20;;;3.05;;
18501;SDS011;68437;52.236;5.710;2023-09-19T06:43:11;14.73;;;2.75;;
18501;SDS011;68437;52.236;5.710;2023-09-19T06:45:39;12.50;;;2.80;;
18501;SDS011;68437;52.236;5.710;2023-09-19T06:48:06;13.02;;;2.92;;
18501;SDS011;68437;52.236;5.710;2023-09-19T06:50:35;16.80;;;2.95;;
18501;SDS011;68437;52.236;5.710;2023-09-19T06:53:02;14.30;;;3.00;;
18501;SDS011;68437;52.236;5.710;2023-09-19T06:55:30;23.20;;;3.03;;
18501;SDS011;68437;52.236;5.710;2023-09-19T06:57:57;17.05;;;2.90;;
18501;SDS011;68437;52.236;5.710;2023-09-19T07:00:24;17.90;;;3.03;;
18501;SDS011;68437;52.236;5.710;2023-09-19T07:02:56;16.50;;;3.30;;
18501;SDS011;68437;52.236;5.710;2023-09-19T07:05:26;17.10;;;3.13;;
18501;SDS011;68437;52.236;5.710;2023-09-19T07:07:54;16.08;;;3.20;;
18501;SDS011;68437;52.236;5.710;2023-09-19T07:10:21;17.63;;;2.88;;
18501;SDS011;68437;52.236;5.710;2023-09-19T07:12:55;17.15;;;2.75;;
18501;SDS011;68437;52.236;5.710;2023-09-19T07:15:24;19.80;;;3.40;;
18501;SDS011;68437;52.236;5.710;2023-09-19T07:17:51;15.45;;;3.10;;
18501;SDS011;68437;52.236;5.710;2023-09-19T07:20:19;13.52;;;3.13;;
18501;SDS011;68437;52.236;5.710;2023-09-19T07:22:46;16.33;;;3.28;;
18501;SDS011;68437;52.236;5.710;2023-09-19T07:25:13;15.10;;;2.90;;
18501;SDS011;68437;52.236;5.710;2023-09-19T07:27:40;15.63;;;3.10;;
18501;SDS011;68437;52.236;5.710;2023-09-19T07:30:09;15.40;;;3.17;;
18501;SDS011;68437;52.236;5.710;2023-09-19T07:32:37;16.60;;;2.85;;
18501;SDS011;68437;52.236;5.710;2023-09-19T07:35:06;17.73;;;3.17;;
18501;SDS011;68437;52.236;5.710;2023-09-19T07:37:33;14.43;;;3.10;;
18501;SDS011;68437;52.236;5.710;2023-09-19T07:40:01;13.98;;;2.78;;
18501;SDS011;68437;52.236;5.710;2023-09-19T07:42:32;17.80;;;2.80;;
18501;SDS011;68437;52.236;5.710;2023-09-19T07:45:02;19.85;;;2.70;;
18501;SDS011;68437;52.236;5.710;2023-09-19T07:47:30;20.27;;;3.00;;
18501;SDS011;68437;52.236;5.710;2023-09-19T07:49:57;21.23;;;3.33;;
18501;SDS011;68437;52.236;5.710;2023-09-19T07:52:25;15.77;;;2.78;;
18501;SDS011;68437;52.236;5.710;2023-09-19T07:54:52;20.48;;;2.85;;
18501;SDS011;68437;52.236;5.710;2023-09-19T07:57:19;18.52;;;2.60;;
18501;SDS011;68437;52.236;5.710;2023-09-19T07:59:47;13.32;;;3.00;;
18501;SDS011;68437;52.236;5.710;2023-09-19T08:02:14;18.50;;;3.05;;
18501;SDS011;68437;52.236;5.710;2023-09-19T08:04:43;19.88;;;2.92;;
18501;SDS011;68437;52.236;5.710;2023-09-19T08:07:10;19.50;;;2.70;;
18501;SDS011;68437;52.236;5.710;2023-09-19T08:09:38;11.23;;;2.47;;
18501;SDS011;68437;52.236;5.710;2023-09-19T08:12:05;18.17;;;3.20;;
18501;SDS011;68437;52.236;5.710;2023-09-19T08:14:33;18.83;;;2.80;;
18501;SDS011;68437;52.236;5.710;2023-09-19T08:17:00;17.25;;;3.22;;
18501;SDS011;68437;52.236;5.710;2023-09-19T08:19:27;18.67;;;2.55;;
18501;SDS011;68437;52.236;5.710;2023-09-19T08:21:57;16.55;;;2.90;;
18501;SDS011;68437;52.236;5.710;2023-09-19T08:24:25;16.83;;;2.78;;
18501;SDS011;68437;52.236;5.710;2023-09-19T08:26:53;19.05;;;2.95;;
18501;SDS011;68437;52.236;5.710;2023-09-19T08:29:20;19.58;;;3.13;;
18501;SDS011;68437;52.236;5.710;2023-09-19T08:31:52;15.00;;;3.17;;
18501;SDS011;68437;52.236;5.710;2023-09-19T08:34:20;13.75;;;2.90;;
18501;SDS011;68437;52.236;5.710;2023-09-19T08:36:48;12.43;;;2.80;;
18501;SDS011;68437;52.236;5.710;2023-09-19T08:39:18;16.85;;;3.20;;
18501;SDS011;68437;52.236;5.710;2023-09-19T08:41:45;13.55;;;2.90;;
18501;SDS011;68437;52.236;5.710;2023-09-19T08:44:11;19.27;;;3.30;;
18501;SDS011;68437;52.236;5.710;2023-09-19T08:46:40;17.45;;;2.75;;
18501;SDS011;68437;52.236;5.710;2023-09-19T08:49:08;14.68;;;2.97;;
18501;SDS011;68437;52.236;5.710;2023-09-19T08:51:41;16.98;;;3.17;;
18501;SDS011;68437;52.236;5.710;2023-09-19T08:54:12;18.92;;;3.30;;
18501;SDS011;68437;52.236;5.710;2023-09-19T08:56:48;14.90;;;3.13;;
18501;SDS011;68437;52.236;5.710;2023-09-19T08:59:17;23.30;;;3.60;;
18501;SDS011;68437;52.236;5.710;2023-09-19T09:01:50;17.30;;;3.28;;
18501;SDS011;68437;52.236;5.710;2023-09-19T09:04:19;15.73;;;3.50;;
18501;SDS011;68437;52.236;5.710;2023-09-19T09:06:46;22.83;;;3.50;;
18501;SDS011;68437;52.236;5.710;2023-09-19T09:09:13;16.85;;;3.40;;
18501;SDS011;68437;52.236;5.710;2023-09-19T09:11:42;14.13;;;3.25;;
18501;SDS011;68437;52.236;5.710;2023-09-19T09:14:09;15.20;;;3.70;;
18501;SDS011;68437;52.236;5.710;2023-09-19T09:16:36;19.38;;;3.65;;
18501;SDS011;68437;52.236;5.710;2023-09-19T09:19:03;21.42;;;3.80;;
18501;SDS011;68437;52.236;5.710;2023-09-19T09:21:31;15.88;;;3.58;;
18501;SDS011;68437;52.236;5.710;2023-09-19T09:26:57;23.63;;;3.55;;
18501;SDS011;68437;52.236;5.710;2023-09-19T09:32:22;16.33;;;3.00;;
18501;SDS011;68437;52.236;5.710;2023-09-19T09:34:51;19.92;;;3.03;;
18501;SDS011;68437;52.236;5.710;2023-09-19T09:37:19;17.15;;;2.90;;
18501;SDS011;68437;52.236;5.710;2023-09-19T09:39:51;16.75;;;2.88;;
18501;SDS011;68437;52.236;5.710;2023-09-19T09:42:31;19.92;;;3.00;;
18501;SDS011;68437;52.236;5.710;2023-09-19T09:45:12;18.70;;;2.95;;
18501;SDS011;68437;52.236;5.710;2023-09-19T09:47:44;14.45;;;2.83;;
18501;SDS011;68437;52.236;5.710;2023-09-19T09:50:26;21.65;;;3.00;;
18501;SDS011;68437;52.236;5.710;2023-09-19T09:53:20;16.38;;;2.78;;
18501;SDS011;68437;52.236;5.710;2023-09-19T09:55:56;12.98;;;2.42;;
18501;SDS011;68437;52.236;5.710;2023-09-19T09:58:27;16.23;;;2.88;;
18501;SDS011;68437;52.236;5.710;2023-09-19T10:00:55;21.17;;;2.85;;
18501;SDS011;68437;52.236;5.710;2023-09-19T10:03:31;16.63;;;2.42;;
18501;SDS011;68437;52.236;5.710;2023-09-19T10:06:04;21.13;;;2.63;;
18501;SDS011;68437;52.236;5.710;2023-09-19T10:08:59;18.27;;;3.17;;
18501;SDS011;68437;52.236;5.710;2023-09-19T10:11:42;15.63;;;2.80;;
18501;SDS011;68437;52.236;5.710;2023-09-19T10:14:12;14.30;;;2.80;;
18501;SDS011;68437;52.236;5.710;2023-09-19T10:16:43;17.30;;;2.75;;
18501;SDS011;68437;52.236;5.710;2023-09-19T10:19:14;16.88;;;2.65;;
18501;SDS011;68437;52.236;5.710;2023-09-19T10:21:43;15.65;;;3.08;;
18501;SDS011;68437;52.236;5.710;2023-09-19T10:24:11;17.15;;;2.67;;
18501;SDS011;68437;52.236;5.710;2023-09-19T10:26:41;15.00;;;2.78;;
18501;SDS011;68437;52.236;5.710;2023-09-19T10:29:11;15.70;;;3.00;;
18501;SDS011;68437;52.236;5.710;2023-09-19T10:31:41;16.38;;;2.60;;
18501;SDS011;68437;52.236;5.710;2023-09-19T10:34:12;17.00;;;2.63;;
18501;SDS011;68437;52.236;5.710;2023-09-19T10:36:44;14.00;;;2.90;;
18501;SDS011;68437;52.236;5.710;2023-09-19T10:39:12;17.23;;;2.80;;
18501;SDS011;68437;52.236;5.710;2023-09-19T10:41:45;16.00;;;2.83;;
18501;SDS011;68437;52.236;5.710;2023-09-19T10:44:21;17.40;;;2.80;;
18501;SDS011;68437;52.236;5.710;2023-09-19T10:46:50;14.13;;;2.90;;
18501;SDS011;68437;52.236;5.710;2023-09-19T10:49:18;13.10;;;2.45;;
18501;SDS011;68437;52.236;5.710;2023-09-19T10:51:46;17.85;;;2.90;;
18501;SDS011;68437;52.236;5.710;2023-09-19T10:54:16;17.83;;;2.47;;
18501;SDS011;68437;52.236;5.710;2023-09-19T10:56:46;18.10;;;2.72;;
18501;SDS011;68437;52.236;5.710;2023-09-19T10:59:18;16.92;;;2.92;;
18501;SDS011;68437;52.236;5.710;2023-09-19T11:01:49;13.98;;;2.75;;
18501;SDS011;68437;52.236;5.710;2023-09-19T11:04:21;12.20;;;2.83;;
18501;SDS011;68437;52.236;5.710;2023-09-19T11:06:58;18.45;;;3.20;;
18501;SDS011;68437;52.236;5.710;2023-09-19T11:09:42;11.75;;;2.40;;
18501;SDS011;68437;52.236;5.710;2023-09-19T11:12:11;12.77;;;2.90;;
18501;SDS011;68437;52.236;5.710;2023-09-19T11:14:40;10.50;;;2.80;;
18501;SDS011;68437;52.236;5.710;2023-09-19T11:20:23;12.63;;;2.97;;
18501;SDS011;68437;52.236;5.710;2023-09-19T11:25:52;12.65;;;3.00;;
18501;SDS011;68437;52.236;5.710;2023-09-19T11:28:32;18.15;;;3.22;;
18501;SDS011;68437;52.236;5.710;2023-09-19T11:40:27;14.68;;;2.83;;
18501;SDS011;68437;52.236;5.710;2023-09-19T11:42:55;9.90;;;2.40;;
18501;SDS011;68437;52.236;5.710;2023-09-19T11:48:28;8.43;;;2.30;;
18501;SDS011;68437;52.236;5.710;2023-09-19T11:50:57;15.55;;;3.08;;
18501;SDS011;68437;52.236;5.710;2023-09-19T11:53:30;12.23;;;2.67;;
18501;SDS011;68437;52.236;5.710;2023-09-19T11:56:01;14.55;;;2.50;;
18501;SDS011;68437;52.236;5.710;2023-09-19T11:58:35;10.23;;;2.35;;
18501;SDS011;68437;52.236;5.710;2023-09-19T12:01:03;13.45;;;2.70;;
18501;SDS011;68437;52.236;5.710;2023-09-19T12:03:39;10.95;;;2.60;;
18501;SDS011;68437;52.236;5.710;2023-09-19T12:06:13;10.65;;;2.28;;
18501;SDS011;68437;52.236;5.710;2023-09-19T12:08:40;11.25;;;2.30;;
18501;SDS011;68437;52.236;5.710;2023-09-19T12:11:11;6.90;;;1.90;;
18501;SDS011;68437;52.236;5.710;2023-09-19T12:13:43;14.52;;;2.60;;
18501;SDS011;68437;52.236;5.710;2023-09-19T12:16:11;12.73;;;2.30;;
18501;SDS011;68437;52.236;5.710;2023-09-19T12:18:42;13.23;;;2.22;;
18501;SDS011;68437;52.236;5.710;2023-09-19T12:21:27;12.82;;;2.22;;
18501;SDS011;68437;52.236;5.710;2023-09-19T12:23:59;11.25;;;2.28;;
18501;SDS011;68437;52.236;5.710;2023-09-19T12:26:36;15.43;;;2.30;;
18501;SDS011;68437;52.236;5.710;2023-09-19T12:29:05;10.73;;;2.03;;
18501;SDS011;68437;52.236;5.710;2023-09-19T12:31:52;13.07;;;1.92;;
18501;SDS011;68437;52.236;5.710;2023-09-19T12:34:24;14.90;;;1.95;;
18501;SDS011;68437;52.236;5.710;2023-09-19T12:37:05;14.23;;;1.63;;
18501;SDS011;68437;52.236;5.710;2023-09-19T12:39:37;8.90;;;1.75;;
18501;SDS011;68437;52.236;5.710;2023-09-19T12:42:09;9.50;;;1.63;;
18501;SDS011;68437;52.236;5.710;2023-09-19T12:44:40;5.15;;;1.50;;
18501;SDS011;68437;52.236;5.710;2023-09-19T12:47:12;9.50;;;1.70;;
18501;SDS011;68437;52.236;5.710;2023-09-19T12:52:44;7.07;;;1.80;;
18501;SDS011;68437;52.236;5.710;2023-09-19T12:55:22;8.13;;;1.65;;
18501;SDS011;68437;52.236;5.710;2023-09-19T12:57:56;6.03;;;1.40;;
18501;SDS011;68437;52.236;5.710;2023-09-19T13:00:40;6.18;;;1.52;;
18501;SDS011;68437;52.236;5.710;2023-09-19T13:03:11;9.60;;;1.60;;
18501;SDS011;68437;52.236;5.710;2023-09-19T13:05:52;9.57;;;1.40;;
18501;SDS011;68437;52.236;5.710;2023-09-19T13:08:21;5.13;;;1.23;;
18501;SDS011;68437;52.236;5.710;2023-09-19T13:11:10;11.10;;;1.70;;
18501;SDS011;68437;52.236;5.710;2023-09-19T13:13:39;6.25;;;1.70;;
18501;SDS011;68437;52.236;5.710;2023-09-19T13:16:09;6.32;;;1.40;;
18501;SDS011;68437;52.236;5.710;2023-09-19T13:18:46;7.10;;;1.42;;
18501;SDS011;68437;52.236;5.710;2023-09-19T13:21:20;7.07;;;1.40;;
18501;SDS011;68437;52.236;5.710;2023-09-19T13:23:54;7.43;;;1.60;;
18501;SDS011;68437;52.236;5.710;2023-09-19T13:26:24;8.23;;;1.70;;
18501;SDS011;68437;52.236;5.710;2023-09-19T13:28:51;7.90;;;1.50;;
18501;SDS011;68437;52.236;5.710;2023-09-19T13:31:18;10.90;;;1.60;;
18501;SDS011;68437;52.236;5.710;2023-09-19T13:33:45;15.25;;;1.80;;
18501;SDS011;68437;52.236;5.710;2023-09-19T13:36:13;6.57;;;1.42;;
18501;SDS011;68437;52.236;5.710;2023-09-19T13:38:41;9.95;;;1.50;;
18501;SDS011;68437;52.236;5.710;2023-09-19T13:41:09;8.15;;;1.50;;
18501;SDS011;68437;52.236;5.710;2023-09-19T13:43:36;4.93;;;1.50;;
18501;SDS011;68437;52.236;5.710;2023-09-19T13:46:03;6.55;;;1.45;;
18501;SDS011;68437;52.236;5.710;2023-09-19T13:48:32;5.32;;;1.40;;
18501;SDS011;68437;52.236;5.710;2023-09-19T13:51:01;12.00;;;1.80;;
18501;SDS011;68437;52.236;5.710;2023-09-19T13:53:28;6.38;;;1.60;;
18501;SDS011;68437;52.236;5.710;2023-09-19T13:55:56;4.80;;;1.30;;
18501;SDS011;68437;52.236;5.710;2023-09-19T13:58:23;6.82;;;1.33;;
18501;SDS011;68437;52.236;5.710;2023-09-19T14:00:52;7.40;;;1.50;;
18501;SDS011;68437;52.236;5.710;2023-09-19T14:03:21;9.52;;;1.60;;
18501;SDS011;68437;52.236;5.710;2023-09-19T14:05:49;8.52;;;1.60;;
18501;SDS011;68437;52.236;5.710;2023-09-19T14:08:16;11.48;;;1.60;;
18501;SDS011;68437;52.236;5.710;2023-09-19T14:10:43;6.82;;;1.60;;
18501;SDS011;68437;52.236;5.710;2023-09-19T14:13:11;7.28;;;1.83;;
18501;SDS011;68437;52.236;5.710;2023-09-19T14:15:40;11.77;;;1.60;;
18501;SDS011;68437;52.236;5.710;2023-09-19T14:18:07;7.05;;;1.40;;
18501;SDS011;68437;52.236;5.710;2023-09-19T14:20:37;7.13;;;1.63;;
18501;SDS011;68437;52.236;5.710;2023-09-19T14:23:05;5.07;;;1.30;;
18501;SDS011;68437;52.236;5.710;2023-09-19T14:25:33;5.78;;;1.48;;
18501;SDS011;68437;52.236;5.710;2023-09-19T14:28:01;5.95;;;1.50;;
18501;SDS011;68437;52.236;5.710;2023-09-19T14:30:29;8.75;;;1.42;;
18501;SDS011;68437;52.236;5.710;2023-09-19T14:32:57;8.32;;;1.60;;
18501;SDS011;68437;52.236;5.710;2023-09-19T14:35:25;9.13;;;1.58;;
18501;SDS011;68437;52.236;5.710;2023-09-19T14:37:52;8.10;;;1.50;;
18501;SDS011;68437;52.236;5.710;2023-09-19T14:40:20;5.32;;;1.30;;
18501;SDS011;68437;52.236;5.710;2023-09-19T14:42:47;6.88;;;1.60;;
18501;SDS011;68437;52.236;5.710;2023-09-19T14:45:14;7.97;;;1.67;;
18501;SDS011;68437;52.236;5.710;2023-09-19T14:47:45;8.82;;;1.42;;
18501;SDS011;68437;52.236;5.710;2023-09-19T14:50:13;4.82;;;1.60;;
18501;SDS011;68437;52.236;5.710;2023-09-19T14:52:40;6.68;;;1.60;;
18501;SDS011;68437;52.236;5.710;2023-09-19T14:55:07;8.23;;;1.80;;
18501;SDS011;68437;52.236;5.710;2023-09-19T14:57:39;7.72;;;1.60;;
18501;SDS011;68437;52.236;5.710;2023-09-19T15:00:07;9.38;;;1.90;;
18501;SDS011;68437;52.236;5.710;2023-09-19T15:02:37;5.72;;;1.73;;
18501;SDS011;68437;52.236;5.710;2023-09-19T15:05:06;7.32;;;1.98;;
18501;SDS011;68437;52.236;5.710;2023-09-19T15:07:36;8.05;;;1.75;;
18501;SDS011;68437;52.236;5.710;2023-09-19T15:10:04;6.55;;;2.00;;
18501;SDS011;68437;52.236;5.710;2023-09-19T15:12:34;6.13;;;1.60;;
18501;SDS011;68437;52.236;5.710;2023-09-19T15:15:03;8.68;;;2.20;;
18501;SDS011;68437;52.236;5.710;2023-09-19T15:17:33;9.25;;;2.25;;